Time;durP1;ratioP1;P1;durP2;ratioP2;P2;SDS_P1;SDS_P2;PMS_P1;PMS_P2;Temp;Humidity;BMP_temperature;BMP_pressure;BME280_temperature;BME280_humidity;BME280_pressure;Samples;Min_cycle;Max_cycle;Signal;HPM_P1;HPM_P2
2022/05/25 00:01:23;;;;;;;7.18;4.65;;;11.50;99.90;;;;;;5032282;28;20045;-65
2022/05/25 00:03:49;;;;;;;6.75;4.43;;;11.60;99.90;;;;;;5009670;28;20172;-65
2022/05/25 00:06:15;;;;;;;5.28;3.95;;;11.60;99.90;;;;;;5014037;28;20030;-65
2022/05/25 00:08:41;;;;;;;7.13;4.40;;;11.50;99.90;;;;;;5032073;28;20095;-65
2022/05/25 00:11:07;;;;;;;6.88;4.40;;;11.50;99.90;;;;;;5029777;28;20041;-65
2022/05/25 00:13:33;;;;;;;8.52;4.22;;;11.50;99.90;;;;;;5030870;28;20109;-65
2022/05/25 00:15:59;;;;;;;8.13;5.22;;;11.50;99.90;;;;;;5014386;28;20128;-65
2022/05/25 00:18:25;;;;;;;7.85;4.93;;;11.50;99.90;;;;;;5014307;28;20406;-65
2022/05/25 00:20:51;;;;;;;5.65;4.63;;;11.50;99.90;;;;;;5031548;28;20025;-65
2022/05/25 00:23:16;;;;;;;8.43;4.88;;;11.50;99.90;;;;;;5031925;28;20125;-65
2022/05/25 00:25:42;;;;;;;6.80;4.93;;;11.50;99.90;;;;;;5012030;28;20435;-65
2022/05/25 00:28:11;;;;;;;7.50;4.43;;;11.50;99.90;;;;;;5030939;28;20119;-65
2022/05/25 00:30:38;;;;;;;6.88;4.97;;;11.50;99.90;;;;;;5013191;28;20999;-65
2022/05/25 00:33:05;;;;;;;7.40;4.97;;;11.40;99.90;;;;;;5010719;28;20512;-65
2022/05/25 00:35:32;;;;;;;6.78;4.85;;;11.40;99.90;;;;;;5007300;28;20099;-65
2022/05/25 00:37:57;;;;;;;6.10;5.07;;;11.50;99.90;;;;;;5010634;28;20045;-65
2022/05/25 00:40:33;;;;;;;6.20;4.90;;;11.40;99.90;;;;;;5029229;28;20124;-65
2022/05/25 00:42:58;;;;;;;6.95;5.32;;;11.40;99.90;;;;;;5008386;28;20045;-65
2022/05/25 00:45:24;;;;;;;6.47;4.97;;;11.40;99.90;;;;;;5029473;28;20087;-65
2022/05/25 00:47:51;;;;;;;6.53;5.35;;;11.40;99.90;;;;;;5033794;28;20043;-65
2022/05/25 00:50:20;;;;;;;7.60;5.85;;;11.40;99.90;;;;;;5019097;28;20033;-65
2022/05/25 00:52:48;;;;;;;7.90;5.88;;;11.40;99.90;;;;;;5013515;28;20389;-65
2022/05/25 00:55:32;;;;;;;6.50;5.78;;;11.40;99.90;;;;;;5031461;28;20081;-65
2022/05/25 00:57:59;;;;;;;7.50;6.15;;;11.40;99.90;;;;;;5026820;28;20045;-65
2022/05/25 01:00:28;;;;;;;6.43;5.70;;;11.30;99.90;;;;;;5031298;28;20033;-65
2022/05/25 01:03:01;;;;;;;6.93;5.80;;;11.30;99.90;;;;;;5031548;28;20045;-65
2022/05/25 01:05:31;;;;;;;11.63;6.30;;;11.30;99.90;;;;;;5012050;28;20100;-65
2022/05/25 01:08:27;;;;;;;9.13;6.05;;;11.30;99.90;;;;;;5027292;28;20117;-65
2022/05/25 01:11:05;;;;;;;9.00;6.47;;;11.30;99.90;;;;;;5023597;28;20041;-65
2022/05/25 01:13:37;;;;;;;9.93;6.47;;;11.30;99.90;;;;;;5030738;28;20125;-65
2022/05/25 01:16:40;;;;;;;8.13;6.47;;;11.20;99.90;;;;;;5013379;28;20045;-65
2022/05/25 01:19:17;;;;;;;8.65;6.43;;;11.20;99.90;;;;;;5029614;28;20474;-65
2022/05/25 01:22:05;;;;;;;8.95;6.43;;;11.20;99.90;;;;;;5031190;28;20042;-65
2022/05/25 01:24:48;;;;;;;10.68;7.47;;;11.10;99.90;;;;;;5029332;28;20041;-65
2022/05/25 01:27:37;;;;;;;10.55;7.25;;;11.10;99.90;;;;;;5026014;28;20080;-65
2022/05/25 01:30:18;;;;;;;11.52;7.28;;;11.00;99.90;;;;;;5030851;28;20052;-65
2022/05/25 01:32:58;;;;;;;8.38;6.70;;;11.00;99.90;;;;;;5025588;28;20527;-65
2022/05/25 01:35:48;;;;;;;9.88;7.57;;;11.00;99.90;;;;;;5004048;28;20122;-65
2022/05/25 01:38:44;;;;;;;11.18;7.63;;;10.90;99.90;;;;;;5031004;28;20102;-65
2022/05/25 01:41:20;;;;;;;9.55;7.47;;;10.90;99.90;;;;;;5037954;28;20102;-65
2022/05/25 01:43:58;;;;;;;10.00;7.82;;;10.90;99.90;;;;;;5027032;28;20042;-65
2022/05/25 01:46:28;;;;;;;10.75;7.88;;;10.90;99.90;;;;;;5029467;28;20083;-65
2022/05/25 01:48:56;;;;;;;12.07;8.15;;;10.90;99.90;;;;;;5030341;28;20047;-65
2022/05/25 01:51:35;;;;;;;12.00;8.35;;;10.90;99.90;;;;;;5030792;28;20057;-65
2022/05/25 01:54:04;;;;;;;13.18;8.38;;;10.90;99.90;;;;;;5012789;28;20045;-65
2022/05/25 01:56:34;;;;;;;12.48;8.40;;;10.80;99.90;;;;;;5028094;28;20045;-65
2022/05/25 01:59:03;;;;;;;11.50;8.73;;;10.90;99.90;;;;;;5027650;28;20038;-65
2022/05/25 02:01:30;;;;;;;11.93;8.52;;;10.80;99.90;;;;;;5010520;28;20053;-65
2022/05/25 02:07:08;;;;;;;12.75;8.60;;;10.80;99.90;;;;;;5012833;28;20045;-65
2022/05/25 02:10:01;;;;;;;13.40;9.02;;;10.80;99.90;;;;;;5013137;28;20041;-65
2022/05/25 02:12:58;;;;;;;12.70;9.15;;;10.80;99.90;;;;;;5008360;28;20041;-65
2022/05/25 02:15:31;;;;;;;11.55;8.65;;;10.80;99.90;;;;;;5035254;28;20041;-65
2022/05/25 02:18:18;;;;;;;14.65;9.48;;;10.80;99.90;;;;;;5005378;28;20043;-65
2022/05/25 02:20:51;;;;;;;11.63;9.30;;;10.80;99.90;;;;;;5029018;28;20041;-65
2022/05/25 02:23:31;;;;;;;11.13;9.23;;;10.80;99.90;;;;;;5012129;28;20042;-65
2022/05/25 02:26:06;;;;;;;11.63;9.25;;;10.80;99.90;;;;;;5010454;28;20041;-65
2022/05/25 02:28:39;;;;;;;12.30;9.68;;;10.70;99.90;;;;;;5029017;28;20037;-65
2022/05/25 02:31:08;;;;;;;13.27;9.73;;;10.70;99.90;;;;;;5036941;28;20073;-65
2022/05/25 02:33:39;;;;;;;12.80;9.75;;;10.70;99.90;;;;;;5023909;28;20553;-65
2022/05/25 02:36:08;;;;;;;13.43;10.32;;;10.70;99.90;;;;;;5012663;28;20146;-65
2022/05/25 02:38:37;;;;;;;12.07;10.00;;;10.70;99.90;;;;;;5028705;28;20037;-65
2022/05/25 02:41:09;;;;;;;12.82;10.52;;;10.60;99.90;;;;;;5030042;28;20091;-65
2022/05/25 02:43:36;;;;;;;12.82;9.85;;;10.60;99.90;;;;;;5028288;28;20132;-65
2022/05/25 02:46:02;;;;;;;13.52;10.05;;;10.60;99.90;;;;;;5034360;28;20159;-65
2022/05/25 02:48:28;;;;;;;15.00;11.32;;;10.60;99.90;;;;;;5014669;28;20048;-65
2022/05/25 02:50:53;;;;;;;14.90;11.07;;;10.60;99.90;;;;;;5034292;28;20037;-65
2022/05/25 02:53:20;;;;;;;13.52;11.05;;;10.60;99.90;;;;;;5033974;28;20041;-65
2022/05/25 02:55:46;;;;;;;14.20;10.88;;;10.60;99.90;;;;;;5016352;28;20503;-65
2022/05/25 02:58:11;;;;;;;13.68;11.38;;;10.60;99.90;;;;;;5012010;28;20049;-65
2022/05/25 03:00:37;;;;;;;13.88;11.50;;;10.50;99.90;;;;;;5033843;28;20045;-65
2022/05/25 03:03:02;;;;;;;15.52;11.73;;;10.50;99.90;;;;;;5033559;28;20092;-65
2022/05/25 03:05:28;;;;;;;14.45;11.40;;;10.50;99.90;;;;;;5034159;28;20077;-65
2022/05/25 03:07:53;;;;;;;15.38;10.77;;;10.50;99.90;;;;;;5032182;28;20048;-65
2022/05/25 03:10:19;;;;;;;14.57;10.50;;;10.50;99.90;;;;;;5015878;28;20044;-65
2022/05/25 03:12:45;;;;;;;15.88;11.70;;;10.50;99.90;;;;;;5014333;28;20041;-65
2022/05/25 03:15:11;;;;;;;13.60;10.60;;;10.50;99.90;;;;;;5015091;28;20049;-65
2022/05/25 03:17:36;;;;;;;14.32;11.45;;;10.50;99.90;;;;;;5031958;28;20076;-65
2022/05/25 03:20:03;;;;;;;14.13;11.57;;;10.40;99.90;;;;;;5034122;28;20128;-65
2022/05/25 03:22:28;;;;;;;14.55;11.65;;;10.40;99.90;;;;;;5015835;28;20392;-65
2022/05/25 03:24:54;;;;;;;16.75;11.52;;;10.50;99.90;;;;;;5016512;28;20044;-65
2022/05/25 03:27:19;;;;;;;17.05;11.98;;;10.50;99.90;;;;;;5031992;28;20496;-65
2022/05/25 03:29:45;;;;;;;16.63;12.05;;;10.50;99.90;;;;;;5032591;28;20048;-65
2022/05/25 03:32:11;;;;;;;16.75;12.50;;;10.50;99.90;;;;;;5013922;28;20535;-65
2022/05/25 03:34:37;;;;;;;15.73;12.40;;;10.40;99.90;;;;;;5014287;28;20040;-65
2022/05/25 03:37:04;;;;;;;16.85;12.60;;;10.40;99.90;;;;;;5033337;28;20083;-65
2022/05/25 03:39:29;;;;;;;16.65;11.77;;;10.40;99.90;;;;;;5032918;28;20041;-65
2022/05/25 03:42:07;;;;;;;16.92;12.57;;;10.50;99.90;;;;;;5014376;28;20108;-65
2022/05/25 03:44:34;;;;;;;17.10;12.80;;;10.40;99.90;;;;;;5012581;28;20515;-65
2022/05/25 03:47:00;;;;;;;18.48;13.07;;;10.40;99.90;;;;;;5032598;28;20040;-65
2022/05/25 03:49:26;;;;;;;16.55;13.07;;;10.40;99.90;;;;;;5015053;28;20050;-65
2022/05/25 03:51:51;;;;;;;16.77;12.35;;;10.40;99.90;;;;;;5032650;28;20139;-65
2022/05/25 03:54:17;;;;;;;17.98;13.57;;;10.40;99.90;;;;;;5037480;28;20037;-65
2022/05/25 03:56:43;;;;;;;18.52;13.40;;;10.30;99.90;;;;;;5014668;28;20044;-65
2022/05/25 03:59:09;;;;;;;15.52;11.93;;;10.30;99.90;;;;;;5013473;28;20047;-65
2022/05/25 04:01:36;;;;;;;20.00;13.55;;;10.30;99.90;;;;;;5014639;28;20042;-65
2022/05/25 04:04:02;;;;;;;17.77;13.15;;;10.30;99.90;;;;;;5027772;28;20057;-65
2022/05/25 04:06:28;;;;;;;18.00;13.85;;;10.30;99.90;;;;;;5032058;28;20034;-65
2022/05/25 04:08:53;;;;;;;17.60;13.50;;;10.30;99.90;;;;;;5032449;28;20092;-65
2022/05/25 04:11:19;;;;;;;17.48;12.95;;;10.30;99.90;;;;;;5032464;28;20099;-65
2022/05/25 04:13:45;;;;;;;20.38;13.80;;;10.30;99.90;;;;;;5031017;28;20037;-65
2022/05/25 04:16:10;;;;;;;19.10;13.00;;;10.30;99.90;;;;;;5030797;28;20044;-65
2022/05/25 04:18:36;;;;;;;16.88;13.10;;;10.30;99.90;;;;;;5021896;28;20037;-65
2022/05/25 04:21:02;;;;;;;18.92;13.65;;;10.30;99.90;;;;;;5028320;28;20042;-64
2022/05/25 04:23:28;;;;;;;18.98;14.13;;;10.30;99.90;;;;;;5031786;28;20514;-65
2022/05/25 04:25:55;;;;;;;17.98;13.98;;;10.30;99.90;;;;;;5032103;28;20120;-65
2022/05/25 04:28:20;;;;;;;15.35;12.88;;;10.30;99.90;;;;;;5014430;28;20030;-64
2022/05/25 04:30:47;;;;;;;18.20;14.32;;;10.30;99.90;;;;;;5030937;28;20052;-65
2022/05/25 04:33:13;;;;;;;18.02;14.00;;;10.30;99.90;;;;;;5029193;28;20030;-65
2022/05/25 04:35:40;;;;;;;18.63;14.07;;;10.30;99.90;;;;;;5029753;28;20048;-65
2022/05/25 04:38:06;;;;;;;16.85;13.68;;;10.40;99.90;;;;;;5011087;28;20053;-65
2022/05/25 04:40:33;;;;;;;20.23;15.00;;;10.40;99.90;;;;;;5029839;28;20550;-65
2022/05/25 04:43:02;;;;;;;21.90;14.02;;;10.40;99.90;;;;;;5013759;28;20048;-65
2022/05/25 04:45:28;;;;;;;20.83;14.65;;;10.40;99.90;;;;;;5028461;28;20038;-64
2022/05/25 04:47:57;;;;;;;18.45;13.85;;;10.40;99.90;;;;;;5020767;28;20091;-65
2022/05/25 04:50:24;;;;;;;19.23;14.07;;;10.40;99.90;;;;;;5028323;28;20044;-65
2022/05/25 04:52:50;;;;;;;21.08;13.75;;;10.50;99.90;;;;;;5030807;28;20403;-64
2022/05/25 04:58:01;;;;;;;18.73;13.80;;;10.50;99.90;;;;;;5031093;28;20499;-65
2022/05/25 05:00:28;;;;;;;24.23;15.30;;;10.50;99.90;;;;;;5011295;28;20129;-65
2022/05/25 05:02:53;;;;;;;21.92;14.60;;;10.50;99.90;;;;;;5025378;28;20099;-65
2022/05/25 05:05:20;;;;;;;18.48;14.50;;;10.50;99.90;;;;;;5013152;28;20037;-65
2022/05/25 05:07:46;;;;;;;19.42;14.55;;;10.60;99.90;;;;;;5030539;28;20192;-65
2022/05/25 05:10:13;;;;;;;21.27;15.18;;;10.60;99.90;;;;;;5025898;28;20556;-65
2022/05/25 05:12:40;;;;;;;20.13;14.05;;;10.60;99.90;;;;;;5029721;28;20046;-65
2022/05/25 05:15:06;;;;;;;18.85;14.13;;;10.60;99.90;;;;;;5031619;28;20101;-65
2022/05/25 05:17:31;;;;;;;20.88;15.23;;;10.70;99.90;;;;;;5013386;28;20408;-65
2022/05/25 05:19:57;;;;;;;22.35;15.73;;;10.70;99.90;;;;;;5029585;28;20048;-65
2022/05/25 05:22:22;;;;;;;21.85;15.00;;;10.70;99.90;;;;;;5029355;28;20033;-64
2022/05/25 05:24:48;;;;;;;21.80;15.85;;;10.80;99.90;;;;;;5008030;28;20052;-64
2022/05/25 05:27:14;;;;;;;25.95;16.52;;;10.80;99.90;;;;;;5029568;28;20451;-65
2022/05/25 05:29:39;;;;;;;23.10;16.23;;;10.80;99.90;;;;;;5009494;28;20043;-65
2022/05/25 05:32:06;;;;;;;22.92;16.55;;;10.90;99.90;;;;;;5030204;28;20043;-65
2022/05/25 05:34:31;;;;;;;23.48;16.33;;;10.90;99.90;;;;;;5007210;28;20041;-65
2022/05/25 05:37:09;;;;;;;26.95;17.38;;;10.90;99.90;;;;;;5011865;28;20053;-64
2022/05/25 05:39:40;;;;;;;24.92;16.95;;;11.00;99.90;;;;;;5030356;28;20033;-65
2022/05/25 05:42:10;;;;;;;25.00;17.13;;;11.00;99.90;;;;;;5013118;28;20052;-65
2022/05/25 05:44:44;;;;;;;27.02;17.90;;;11.10;99.90;;;;;;5029262;28;20429;-65
2022/05/25 05:47:14;;;;;;;27.40;17.60;;;11.10;99.90;;;;;;5026647;28;20041;-65
2022/05/25 05:49:40;;;;;;;30.33;17.80;;;11.10;99.90;;;;;;5030414;28;20025;-65
2022/05/25 05:52:06;;;;;;;31.48;19.00;;;11.20;99.90;;;;;;5030511;28;20495;-65
2022/05/25 05:54:32;;;;;;;24.63;18.35;;;11.30;99.90;;;;;;5030208;28;20071;-65
2022/05/25 05:56:58;;;;;;;28.13;17.73;;;11.30;99.90;;;;;;5031001;28;20041;-65
2022/05/25 05:59:24;;;;;;;30.85;18.10;;;11.40;99.90;;;;;;5010949;28;20056;-65
2022/05/25 06:01:49;;;;;;;27.42;18.58;;;11.40;99.90;;;;;;5014862;28;20049;-65
2022/05/25 06:04:15;;;;;;;27.77;19.30;;;11.50;99.90;;;;;;4994453;28;20044;-65
2022/05/25 06:06:40;;;;;;;31.40;19.15;;;11.50;99.90;;;;;;5011754;28;20034;-65
2022/05/25 06:09:06;;;;;;;27.20;19.27;;;11.50;99.90;;;;;;5013463;28;20396;-65
2022/05/25 06:11:32;;;;;;;30.77;18.90;;;11.60;99.90;;;;;;5014275;28;20033;-65
2022/05/25 06:13:58;;;;;;;27.13;18.50;;;11.60;99.90;;;;;;5014154;28;20116;-65
2022/05/25 06:19:26;;;;;;;26.90;18.25;;;11.70;99.90;;;;;;5000241;28;20136;-65
2022/05/25 06:22:03;;;;;;;26.95;18.27;;;11.80;99.90;;;;;;5015283;28;20052;-65
2022/05/25 06:24:31;;;;;;;26.95;18.80;;;11.80;99.90;;;;;;5026530;28;20034;-65
2022/05/25 06:26:57;;;;;;;26.98;17.90;;;11.90;99.90;;;;;;5034520;28;20415;-65
2022/05/25 06:29:22;;;;;;;22.52;17.00;;;12.00;99.90;;;;;;5012872;28;20207;-65
2022/05/25 06:31:48;;;;;;;23.13;16.15;;;12.00;99.90;;;;;;5017099;28;20049;-65
2022/05/25 06:34:15;;;;;;;26.08;17.80;;;12.10;99.90;;;;;;5016128;28;20044;-65
2022/05/25 06:36:42;;;;;;;27.23;16.63;;;12.00;99.90;;;;;;4997394;28;20570;-65
2022/05/25 06:39:08;;;;;;;25.38;16.38;;;12.10;99.90;;;;;;5015463;28;20061;-65
2022/05/25 06:41:34;;;;;;;21.70;15.77;;;12.10;99.90;;;;;;5015145;28;20054;-65
2022/05/25 06:44:00;;;;;;;22.77;14.73;;;12.20;99.90;;;;;;5002033;28;20384;-65
2022/05/25 06:46:27;;;;;;;23.50;15.80;;;12.20;99.90;;;;;;5033658;23;20069;-74
2022/05/25 06:48:55;;;;;;;22.70;14.88;;;12.30;99.90;;;;;;4989899;28;20125;-75
2022/05/25 06:51:33;;;;;;;23.98;14.90;;;12.40;99.90;;;;;;4986305;28;20485;-75
2022/05/25 06:53:58;;;;;;;23.13;14.30;;;12.50;99.90;;;;;;4982554;28;20445;-75
2022/05/25 06:56:25;;;;;;;20.73;13.25;;;12.50;99.90;;;;;;4985426;28;20041;-75
2022/05/25 06:58:54;;;;;;;23.77;13.27;;;12.60;99.90;;;;;;4985333;28;20493;-75
2022/05/25 07:01:21;;;;;;;22.10;13.48;;;12.70;99.90;;;;;;4983538;28;20489;-75
2022/05/25 07:03:47;;;;;;;18.50;13.30;;;12.70;99.90;;;;;;5008957;28;20436;-74
2022/05/25 07:06:14;;;;;;;19.10;12.85;;;12.80;99.90;;;;;;4987068;28;20030;-75
2022/05/25 07:08:40;;;;;;;19.67;13.13;;;12.80;99.90;;;;;;5001297;28;20394;-75
2022/05/25 07:11:06;;;;;;;18.25;12.98;;;12.90;99.90;;;;;;4989967;28;20038;-75
2022/05/25 07:13:32;;;;;;;18.55;12.63;;;12.90;99.90;;;;;;4997034;28;20329;-74
2022/05/25 07:16:03;;;;;;;19.35;12.50;;;12.90;99.90;;;;;;4993469;28;20038;-75
2022/05/25 07:18:29;;;;;;;18.33;12.10;;;13.00;99.90;;;;;;4987126;28;20050;-73
2022/05/25 07:21:02;;;;;;;17.60;13.73;;;13.00;99.90;;;;;;4991800;28;20528;-74
2022/05/25 07:23:28;;;;;;;21.15;13.15;;;13.10;99.90;;;;;;4989783;28;20038;-75
2022/05/25 07:25:54;;;;;;;23.27;14.75;;;13.10;99.90;;;;;;4981414;28;20062;-75
2022/05/25 07:28:19;;;;;;;19.67;12.82;;;13.20;99.90;;;;;;4996027;28;20026;-74
2022/05/25 07:30:47;;;;;;;14.70;11.55;;;13.20;99.90;;;;;;4977690;28;20132;-75
2022/05/25 07:33:13;;;;;;;19.38;12.20;;;13.30;99.90;;;;;;4991549;28;20044;-75
2022/05/25 07:35:39;;;;;;;19.05;11.82;;;13.30;99.90;;;;;;4994068;28;20042;-75
2022/05/25 07:38:05;;;;;;;20.45;13.05;;;13.40;99.90;;;;;;5001704;28;20452;-74
2022/05/25 07:40:35;;;;;;;21.83;13.13;;;13.50;99.90;;;;;;4998240;28;20083;-75
2022/05/25 07:43:12;;;;;;;17.70;12.23;;;13.50;99.90;;;;;;5004114;28;20069;-75
2022/05/25 07:45:38;;;;;;;17.25;11.32;;;13.70;99.90;;;;;;4988885;28;20128;-76
2022/05/25 07:48:04;;;;;;;19.10;11.43;;;13.80;99.90;;;;;;4995795;28;20458;-74
2022/05/25 07:50:30;;;;;;;19.95;11.63;;;13.80;99.90;;;;;;5000579;28;20042;-75
2022/05/25 07:52:59;;;;;;;17.55;11.27;;;13.90;99.90;;;;;;4995461;28;20042;-74
2022/05/25 07:55:24;;;;;;;13.27;9.93;;;13.90;99.90;;;;;;5004954;28;20056;-74
2022/05/25 07:57:50;;;;;;;12.52;9.90;;;14.00;99.90;;;;;;5001637;28;20037;-75
2022/05/25 08:00:18;;;;;;;16.98;10.00;;;14.10;99.90;;;;;;5000970;28;20142;-74
2022/05/25 08:05:44;;;;;;;11.70;7.25;;;14.20;99.90;;;;;;4994743;28;20092;-75
2022/05/25 08:08:17;;;;;;;11.93;7.45;;;14.30;99.90;;;;;;5005240;28;20052;-74
2022/05/25 08:10:47;;;;;;;11.80;7.88;;;14.40;99.90;;;;;;4991987;28;20521;-74
2022/05/25 08:13:17;;;;;;;12.40;7.57;;;14.50;99.90;;;;;;4979098;28;20112;-74
2022/05/25 08:15:44;;;;;;;9.60;6.88;;;14.70;99.90;;;;;;4987247;28;20050;-74
2022/05/25 08:18:16;;;;;;;13.38;8.38;;;14.70;99.90;;;;;;4992277;28;20037;-74
2022/05/25 08:20:42;;;;;;;13.73;7.60;;;14.80;99.90;;;;;;4971264;28;20050;-74
2022/05/25 08:23:11;;;;;;;10.85;7.50;;;15.00;99.90;;;;;;4984820;28;20085;-74
2022/05/25 08:25:37;;;;;;;11.73;7.10;;;15.20;99.90;;;;;;4969118;28;20122;-74
2022/05/25 08:28:03;;;;;;;10.85;5.97;;;15.40;99.90;;;;;;4982361;28;20125;-75
2022/05/25 08:30:30;;;;;;;8.45;5.45;;;15.70;99.90;;;;;;4980944;28;20089;-74
2022/05/25 08:32:55;;;;;;;12.30;5.90;;;15.80;99.90;;;;;;4997517;28;20043;-73
2022/05/25 08:35:22;;;;;;;11.55;6.05;;;15.90;99.90;;;;;;4986925;28;20088;-75
2022/05/25 08:37:48;;;;;;;7.65;4.93;;;16.00;99.90;;;;;;4971580;28;20053;-75
2022/05/25 08:40:18;;;;;;;10.48;5.55;;;16.00;99.90;;;;;;4987244;28;20137;-75
2022/05/25 08:42:45;;;;;;;10.02;6.00;;;16.10;99.90;;;;;;4997010;28;20069;-75
2022/05/25 08:45:12;;;;;;;8.95;6.05;;;16.20;99.90;;;;;;4984722;28;20042;-75
2022/05/25 08:47:44;;;;;;;9.23;5.32;;;16.40;99.90;;;;;;4983755;28;20034;-75
2022/05/25 08:50:10;;;;;;;8.98;6.32;;;16.40;99.90;;;;;;4998768;28;20515;-75
2022/05/25 08:52:36;;;;;;;8.50;6.32;;;16.40;99.90;;;;;;4988087;28;20046;-75
2022/05/25 08:55:07;;;;;;;11.77;6.68;;;16.50;99.90;;;;;;4969905;28;20046;-75
2022/05/25 08:57:38;;;;;;;7.47;5.80;;;16.60;99.90;;;;;;4983650;28;20037;-75
2022/05/25 09:00:05;;;;;;;10.27;6.20;;;16.60;99.90;;;;;;4987468;28;20047;-74
2022/05/25 09:03:00;;;;;;;9.05;5.75;;;16.70;99.90;;;;;;4994598;28;20161;-75
2022/05/25 09:05:50;;;;;;;11.85;6.15;;;16.70;99.90;;;;;;4982592;28;20045;-75
2022/05/25 09:08:53;;;;;;;15.23;7.60;;;16.80;99.90;;;;;;4984980;28;20454;-75
2022/05/25 09:11:46;;;;;;;9.70;6.70;;;16.90;99.90;;;;;;4986756;28;20172;-75
2022/05/25 09:14:28;;;;;;;11.07;5.65;;;17.00;99.90;;;;;;4987673;28;20544;-75
2022/05/25 09:16:55;;;;;;;8.90;6.00;;;17.20;99.90;;;;;;4991035;28;20042;-75
2022/05/25 09:19:28;;;;;;;10.70;5.90;;;17.30;99.90;;;;;;4990859;28;20112;-75
2022/05/25 09:22:01;;;;;;;7.57;5.35;;;17.30;99.90;;;;;;4992794;28;20097;-75
2022/05/25 09:24:28;;;;;;;9.77;5.53;;;17.40;99.90;;;;;;4977246;28;20033;-75
2022/05/25 09:26:54;;;;;;;8.40;5.40;;;17.50;99.90;;;;;;4976730;28;20659;-76
2022/05/25 09:29:22;;;;;;;8.00;4.50;;;17.80;99.90;;;;;;4994025;28;20038;-75
2022/05/25 09:31:55;;;;;;;7.13;4.55;;;18.00;99.90;;;;;;4994143;28;20056;-75
2022/05/25 09:34:43;;;;;;;7.88;4.63;;;18.10;99.90;;;;;;4990038;28;20057;-75
2022/05/25 09:37:57;;;;;;;7.28;4.60;;;18.00;99.90;;;;;;4992641;28;20093;-75
2022/05/25 09:40:25;;;;;;;9.05;5.28;;;17.90;99.90;;;;;;4950996;28;20046;-75
2022/05/25 09:42:58;;;;;;;7.35;4.93;;;17.90;99.90;;;;;;4992087;28;20443;-75
2022/05/25 09:45:29;;;;;;;6.70;4.40;;;17.90;99.90;;;;;;4992834;28;20455;-75
2022/05/25 09:47:55;;;;;;;6.97;4.32;;;17.80;99.90;;;;;;4992874;28;20422;-75
2022/05/25 09:50:24;;;;;;;8.18;4.40;;;17.70;99.90;;;;;;4992717;28;20061;-75
2022/05/25 09:52:52;;;;;;;6.55;4.47;;;17.60;99.90;;;;;;4992199;28;20452;-75
2022/05/25 09:55:28;;;;;;;10.55;5.47;;;17.70;99.90;;;;;;4992658;28;20046;-75
2022/05/25 09:58:04;;;;;;;10.07;4.88;;;17.80;99.90;;;;;;4992821;28;20045;-76
2022/05/25 10:00:33;;;;;;;8.63;5.07;;;17.90;99.90;;;;;;4990530;28;20053;-75
2022/05/25 10:03:04;;;;;;;7.07;5.07;;;17.90;99.90;;;;;;4992805;28;20415;-76
2022/05/25 10:05:48;;;;;;;9.95;5.20;;;17.90;99.90;;;;;;4975716;28;20092;-75
2022/05/25 10:08:21;;;;;;;7.68;4.25;;;18.10;99.90;;;;;;4992632;28;20045;-76
2022/05/25 10:10:56;;;;;;;6.38;3.75;;;18.10;99.90;;;;;;4977894;28;20461;-76
2022/05/25 10:13:38;;;;;;;6.82;4.57;;;18.10;99.30;;;;;;4995729;28;20068;-75
2022/05/25 10:16:21;;;;;;;5.72;3.20;;;18.00;99.10;;;;;;4975559;28;20085;-75
2022/05/25 10:18:48;;;;;;;5.10;3.25;;;17.90;97.80;;;;;;4988585;28;20460;-75
2022/05/25 10:21:34;;;;;;;7.97;3.20;;;18.00;99.90;;;;;;4989444;28;20083;-76
2022/05/25 10:24:03;;;;;;;4.60;3.00;;;18.30;99.90;;;;;;4988191;28;20046;-76
2022/05/25 10:26:44;;;;;;;6.47;3.50;;;18.40;98.40;;;;;;4991951;28;20096;-75
2022/05/25 10:29:14;;;;;;;4.82;3.22;;;18.30;97.60;;;;;;4989186;28;20076;-76
2022/05/25 10:37:24;;;;;;;9.93;3.60;;;18.40;97.50;;;;;;4990937;28;20108;-75
2022/05/25 10:39:53;;;;;;;3.80;3.15;;;18.50;95.70;;;;;;4990532;28;20514;-76
2022/05/25 10:42:44;;;;;;;7.22;3.45;;;18.60;96.30;;;;;;4986619;28;20064;-75
2022/05/25 10:45:35;;;;;;;6.90;3.10;;;18.80;97.00;;;;;;4990041;28;20539;-75
2022/05/25 10:48:13;;;;;;;5.00;3.35;;;19.20;94.90;;;;;;4958204;28;20046;-76
2022/05/25 10:51:04;;;;;;;6.03;3.72;;;19.30;93.20;;;;;;4990000;28;20038;-75
2022/05/25 10:56:38;;;;;;;7.93;3.60;;;19.40;90.70;;;;;;5007134;28;20153;-76
2022/05/25 10:59:30;;;;;;;5.05;2.95;;;19.40;91.10;;;;;;4993160;28;20490;-75
2022/05/25 11:02:13;;;;;;;6.68;3.55;;;19.30;91.20;;;;;;4990042;28;20041;-75
2022/05/25 11:04:50;;;;;;;8.45;3.95;;;19.30;91.00;;;;;;4988424;28;20486;-76
2022/05/25 11:07:31;;;;;;;6.53;4.10;;;19.30;91.00;;;;;;4991425;28;20046;-76
2022/05/25 11:10:21;;;;;;;5.97;3.83;;;19.30;91.00;;;;;;4990397;28;20050;-75
2022/05/25 11:13:20;;;;;;;5.32;4.05;;;19.20;91.30;;;;;;4989195;28;20046;-75
2022/05/25 11:16:13;;;;;;;6.55;4.05;;;19.00;88.10;;;;;;4987458;28;20050;-75
2022/05/25 11:19:13;;;;;;;4.43;3.90;;;18.70;89.60;;;;;;4992348;28;20112;-75
2022/05/25 11:21:58;;;;;;;4.90;4.00;;;18.50;91.40;;;;;;5009793;28;20410;-75
2022/05/25 11:24:36;;;;;;;6.38;4.70;;;18.40;92.60;;;;;;4992241;28;20034;-74
2022/05/25 11:27:04;;;;;;;5.97;4.32;;;18.30;92.60;;;;;;4993706;28;20049;-74
2022/05/25 11:30:12;;;;;;;7.07;4.47;;;18.30;92.70;;;;;;4992815;28;20560;-75
2022/05/25 11:32:54;;;;;;;7.60;4.43;;;18.20;92.40;;;;;;4990462;28;20049;-75
2022/05/25 11:35:39;;;;;;;6.13;4.15;;;18.10;92.90;;;;;;4985189;28;20042;-75
2022/05/25 11:38:11;;;;;;;9.05;4.60;;;18.00;92.30;;;;;;4981156;28;20081;-75
2022/05/25 11:40:37;;;;;;;;;;;17.80;92.40;;;;;;4993915;28;20045;-74
2022/05/25 11:43:31;;;;;;;7.57;4.43;;;17.70;93.00;;;;;;4993163;28;19925;-75
2022/05/25 11:46:07;;;;;;;6.25;4.72;;;17.50;93.30;;;;;;4993145;28;20072;-75
2022/05/25 11:48:56;;;;;;;9.63;5.00;;;17.30;93.70;;;;;;4992261;28;20041;-75
2022/05/25 11:51:55;;;;;;;5.60;4.13;;;17.20;94.50;;;;;;4991619;28;20077;-75
2022/05/25 11:54:45;;;;;;;8.13;3.58;;;17.10;94.80;;;;;;4992092;28;20121;-74
2022/05/25 11:57:34;;;;;;;6.45;3.17;;;17.10;93.60;;;;;;4993045;28;20038;-75
2022/05/25 12:00:07;;;;;;;4.30;2.88;;;17.10;93.40;;;;;;4992767;28;20048;-75
2022/05/25 12:03:03;;;;;;;7.82;2.80;;;17.10;93.80;;;;;;4993429;28;20056;-75
2022/05/25 12:05:41;;;;;;;5.07;3.30;;;17.20;93.80;;;;;;4974629;28;20505;-75
2022/05/25 12:08:25;;;;;;;6.72;3.80;;;17.20;94.90;;;;;;4993264;28;20411;-75
2022/05/25 12:11:28;;;;;;;6.28;3.88;;;17.20;95.40;;;;;;4991089;28;20037;-75
2022/05/25 12:14:15;;;;;;;7.05;3.90;;;17.20;96.30;;;;;;4978912;28;20042;-76
2022/05/25 12:16:44;;;;;;;6.53;4.13;;;17.30;97.20;;;;;;4988535;28;20383;-75
2022/05/25 12:19:21;;;;;;;9.50;4.65;;;17.50;98.20;;;;;;4989742;28;20039;-75
2022/05/25 12:21:52;;;;;;;7.82;3.90;;;17.80;98.20;;;;;;4992735;28;21919;-77
2022/05/25 12:24:24;;;;;;;7.78;3.10;;;18.00;98.10;;;;;;4992057;28;20042;-75
2022/05/25 12:26:50;;;;;;;8.23;2.60;;;18.20;96.80;;;;;;4987411;28;20494;-75
2022/05/25 12:29:36;;;;;;;4.82;2.92;;;18.30;96.20;;;;;;4990780;28;20056;-75
2022/05/25 12:32:02;;;;;;;6.45;2.42;;;18.40;94.10;;;;;;4992065;28;20124;-76
2022/05/25 12:34:37;;;;;;;9.70;2.47;;;18.50;94.20;;;;;;5009459;28;20041;-76
2022/05/25 12:37:04;;;;;;;6.75;2.33;;;18.50;94.20;;;;;;4992987;28;20057;-76
2022/05/25 12:39:48;;;;;;;3.97;1.80;;;18.40;94.00;;;;;;4976024;28;20080;-75
2022/05/25 12:42:23;;;;;;;7.00;1.80;;;18.30;90.80;;;;;;4992164;28;20480;-75
2022/05/25 12:50:50;;;;;;;9.23;1.70;;;18.20;91.50;;;;;;4992227;28;20556;-75
2022/05/25 12:53:23;;;;;;;5.63;1.90;;;18.20;92.20;;;;;;4976484;28;20052;-75
2022/05/25 12:56:10;;;;;;;4.18;1.65;;;18.50;92.90;;;;;;4991701;28;20053;-75
2022/05/25 12:58:51;;;;;;;6.38;2.03;;;18.70;91.70;;;;;;4986557;28;20057;-75
2022/05/25 13:01:22;;;;;;;5.60;1.77;;;18.90;91.10;;;;;;5010619;28;20042;-76
2022/05/25 13:03:48;;;;;;;4.05;1.80;;;18.90;89.60;;;;;;4992448;28;20042;-75
2022/05/25 13:06:17;;;;;;;4.07;1.60;;;19.00;88.20;;;;;;4992487;28;20136;-75
2022/05/25 13:08:55;;;;;;;4.18;1.70;;;19.10;86.30;;;;;;5008348;28;20046;-75
2022/05/25 13:11:38;;;;;;;8.15;1.38;;;19.00;82.20;;;;;;4991991;28;20050;-75
2022/05/25 13:14:16;;;;;;;8.85;1.70;;;19.00;82.40;;;;;;4992869;28;20046;-75
2022/05/25 13:16:42;;;;;;;4.40;1.20;;;19.10;85.30;;;;;;4992506;28;20056;-75
2022/05/25 13:19:32;;;;;;;4.55;1.67;;;19.10;84.10;;;;;;4992148;28;20041;-75
2022/05/25 13:22:05;;;;;;;7.10;1.40;;;19.30;83.50;;;;;;4991049;28;20046;-75
2022/05/25 13:25:02;;;;;;;5.70;1.30;;;19.30;84.20;;;;;;4991727;28;20056;-76
2022/05/25 13:27:45;;;;;;;6.72;1.27;;;19.30;78.10;;;;;;4986484;28;20091;-75
2022/05/25 13:30:35;;;;;;;4.50;1.20;;;19.30;77.00;;;;;;4991834;28;20522;-75